Time;durP1;ratioP1;P1;durP2;ratioP2;P2;SDS_P1;SDS_P2;PMS_P1;PMS_P2;Temp;Humidity;BMP_temperature;BMP_pressure;BME280_temperature;BME280_humidity;BME280_pressure;Samples;Min_cycle;Max_cycle;Signal;HPM_P1;HPM_P2
2023/07/26 00:02:53;;;;;;;3.42;1.70;;;;;;;15.55;94.96;100181.72;8347379;28;20552;-64
2023/07/26 00:06:54;;;;;;;1.95;1.58;;;;;;;15.59;94.64;100174.88;8360758;28;20112;-65
2023/07/26 00:10:54;;;;;;;2.15;1.50;;;;;;;15.67;94.05;100171.25;8362407;28;20503;-65
2023/07/26 00:14:55;;;;;;;2.88;1.73;;;;;;;15.74;94.59;100173.06;8362302;28;20048;-66
2023/07/26 00:18:55;;;;;;;2.20;1.92;;;;;;;15.81;93.27;100161.44;8359644;28;20154;-65
2023/07/26 00:22:56;;;;;;;4.53;1.80;;;;;;;15.76;93.48;100172.06;8392776;28;20445;-65
2023/07/26 00:26:56;;;;;;;3.22;1.77;;;;;;;15.73;94.74;100171.38;8360505;28;20040;-65
2023/07/26 00:30:56;;;;;;;3.33;1.55;;;;;;;15.71;93.77;100176.16;8357468;28;20717;-65
2023/07/26 00:34:57;;;;;;;2.97;2.28;;;;;;;15.81;93.94;100172.34;8344803;28;20052;-65
2023/07/26 00:38:57;;;;;;;3.22;1.65;;;;;;;15.86;94.31;100175.38;8343889;28;20044;-65
2023/07/26 00:42:58;;;;;;;4.97;1.80;;;;;;;15.80;94.36;100173.38;8359532;28;20037;-65
2023/07/26 00:46:59;;;;;;;6.35;1.90;;;;;;;15.60;98.56;100168.41;8374293;28;20072;-65
2023/07/26 00:51:01;;;;;;;4.82;1.92;;;;;;;15.46;100.00;100171.06;8376674;28;20134;-65
2023/07/26 00:55:03;;;;;;;2.85;1.75;;;;;;;15.31;100.00;100170.94;8375404;28;20434;-65
2023/07/26 00:59:03;;;;;;;3.85;2.15;;;;;;;15.30;100.00;100176.56;8374689;28;20041;-65
2023/07/26 01:03:04;;;;;;;2.53;1.83;;;;;;;15.30;100.00;100172.00;8359669;28;20074;-65
2023/07/26 01:07:21;;;;;;;2.83;1.98;;;;;;;15.16;100.00;100172.72;8358053;28;20565;-65
2023/07/26 01:11:44;;;;;;;8.80;2.05;;;;;;;15.19;100.00;100180.53;8358176;28;20187;-65
2023/07/26 01:15:46;;;;;;;2.28;1.92;;;;;;;15.18;100.00;100178.84;8368026;28;20036;-65
2023/07/26 01:19:46;;;;;;;3.05;1.90;;;;;;;15.15;100.00;100181.09;8374243;28;20060;-65
2023/07/26 01:23:47;;;;;;;3.53;2.28;;;;;;;15.22;100.00;100171.19;8374335;28;20495;-65
2023/07/26 01:27:47;;;;;;;4.18;2.33;;;;;;;15.25;100.00;100177.13;8374907;28;20053;-65
2023/07/26 01:31:49;;;;;;;6.93;2.60;;;;;;;15.35;100.00;100177.75;8355150;28;20045;-64
2023/07/26 01:35:50;;;;;;;4.47;2.25;;;;;;;15.31;100.00;100165.50;8358231;28;20132;-65
2023/07/26 01:39:51;;;;;;;2.75;2.03;;;;;;;15.25;100.00;100171.66;8358455;28;20040;-65
2023/07/26 01:43:52;;;;;;;4.57;2.30;;;;;;;15.29;100.00;100175.75;8354464;28;20037;-65
2023/07/26 01:47:53;;;;;;;2.90;2.55;;;;;;;15.31;100.00;100168.22;8358075;28;20119;-65
2023/07/26 01:51:54;;;;;;;3.28;2.40;;;;;;;15.26;100.00;100167.94;8358742;28;20044;-65
2023/07/26 01:55:54;;;;;;;3.83;2.65;;;;;;;15.20;100.00;100174.09;8357817;28;20091;-65
2023/07/26 01:59:55;;;;;;;8.43;2.30;;;;;;;15.16;100.00;100167.28;8356370;28;20064;-65
2023/07/26 02:03:55;;;;;;;3.40;2.25;;;;;;;15.14;100.00;100177.53;8355900;28;20076;-65
2023/07/26 02:07:56;;;;;;;2.83;2.28;;;;;;;15.12;100.00;100178.72;8356852;28;20052;-65
2023/07/26 02:11:56;;;;;;;2.90;2.20;;;;;;;15.11;100.00;100183.34;8358653;28;20045;-62
2023/07/26 02:15:58;;;;;;;3.40;2.95;;;;;;;15.12;100.00;100182.28;8367401;28;20454;-61
2023/07/26 02:19:58;;;;;;;5.10;3.05;;;;;;;15.02;100.00;100180.81;8373669;28;20175;-61
2023/07/26 02:23:59;;;;;;;4.63;2.88;;;;;;;14.91;100.00;100182.03;8373736;28;20090;-61
2023/07/26 02:28:00;;;;;;;2.95;2.50;;;;;;;14.88;100.00;100178.84;8373324;28;20048;-61
2023/07/26 02:32:00;;;;;;;3.03;2.50;;;;;;;14.93;100.00;100177.28;8361978;28;20068;-61
2023/07/26 02:36:01;;;;;;;5.97;3.08;;;;;;;14.88;100.00;100174.22;8357279;28;20068;-60
2023/07/26 02:40:04;;;;;;;3.35;3.05;;;;;;;14.94;100.00;100173.53;8356389;28;20091;-61
2023/07/26 02:44:05;;;;;;;3.42;2.78;;;;;;;14.87;100.00;100178.00;8355226;28;20470;-61
2023/07/26 02:48:07;;;;;;;6.22;3.08;;;;;;;14.87;100.00;100183.44;8356720;28;20098;-61
2023/07/26 02:52:07;;;;;;;4.82;3.90;;;;;;;14.95;100.00;100179.84;8356719;28;20073;-60
2023/07/26 02:56:08;;;;;;;5.57;3.05;;;;;;;15.03;100.00;100180.63;8355973;28;20044;-61
2023/07/26 03:00:09;;;;;;;5.15;2.63;;;;;;;15.07;100.00;100179.25;8355641;28;20462;-60
2023/07/26 03:04:09;;;;;;;4.88;2.55;;;;;;;14.95;100.00;100175.22;8354240;28;20124;-60
2023/07/26 03:08:10;;;;;;;7.32;4.05;;;;;;;14.81;100.00;100169.66;8357822;28;20094;-60
2023/07/26 03:12:10;;;;;;;3.70;2.85;;;;;;;14.69;100.00;100179.22;8359046;28;20047;-60
2023/07/26 03:16:14;;;;;;;4.28;3.22;;;;;;;14.71;100.00;100178.06;8352976;28;20109;-60
2023/07/26 03:20:14;;;;;;;3.50;3.10;;;;;;;14.79;100.00;100180.72;8356225;28;20040;-60
2023/07/26 03:24:15;;;;;;;6.82;3.22;;;;;;;14.72;100.00;100185.19;8355191;28;20033;-60
2023/07/26 03:28:15;;;;;;;6.00;3.97;;;;;;;14.71;100.00;100180.78;8353942;28;20043;-60
2023/07/26 03:32:16;;;;;;;6.10;4.13;;;;;;;14.64;100.00;100187.91;8354868;28;20480;-60
2023/07/26 03:36:16;;;;;;;6.32;4.07;;;;;;;14.51;100.00;100184.91;8354451;28;20387;-60
2023/07/26 03:40:17;;;;;;;9.30;3.78;;;;;;;14.54;100.00;100187.28;8357639;28;20045;-60
2023/07/26 03:44:18;;;;;;;7.32;4.35;;;;;;;14.61;100.00;100192.88;8364965;28;20040;-60
2023/07/26 03:48:18;;;;;;;7.28;4.40;;;;;;;14.58;100.00;100194.06;8376809;28;20050;-61
2023/07/26 03:52:19;;;;;;;6.18;3.85;;;;;;;14.59;100.00;100190.34;8377346;28;20040;-60
2023/07/26 03:56:19;;;;;;;6.20;4.13;;;;;;;14.71;100.00;100194.38;8377354;28;20167;-60
2023/07/26 04:00:20;;;;;;;6.68;3.50;;;;;;;14.88;100.00;100190.56;8372463;28;20045;-61
2023/07/26 04:04:23;;;;;;;7.32;4.25;;;;;;;14.72;100.00;100190.63;8360789;28;20403;-60
2023/07/26 04:08:23;;;;;;;4.38;2.53;;;;;;;14.62;100.00;100195.44;8364677;28;20064;-62
2023/07/26 04:12:24;;;;;;;5.05;3.30;;;;;;;14.62;100.00;100194.56;8362156;28;20053;-60
2023/07/26 04:16:25;;;;;;;3.17;2.70;;;;;;;14.59;100.00;100190.34;8375344;28;20510;-60
2023/07/26 04:20:25;;;;;;;8.52;4.07;;;;;;;14.50;100.00;100191.38;8376627;28;20032;-60
2023/07/26 04:24:25;;;;;;;4.00;3.28;;;;;;;14.59;100.00;100193.06;8391355;28;20041;-60
2023/07/26 04:28:26;;;;;;;6.95;3.65;;;;;;;14.79;100.00;100201.69;8367751;28;20523;-60
2023/07/26 04:32:26;;;;;;;4.72;2.72;;;;;;;15.03;100.00;100209.72;8359480;28;20095;-60
2023/07/26 04:36:27;;;;;;;7.10;2.90;;;;;;;15.07;100.00;100208.38;8359142;28;20554;-60
2023/07/26 04:40:27;;;;;;;3.78;2.80;;;;;;;15.06;100.00;100212.94;8359958;28;20037;-60
2023/07/26 04:44:28;;;;;;;4.57;2.47;;;;;;;15.03;100.00;100218.75;8369775;28;20036;-60
2023/07/26 04:48:28;;;;;;;4.10;2.08;;;;;;;15.06;100.00;100223.84;8376661;28;20467;-60
2023/07/26 04:52:29;;;;;;;3.85;2.22;;;;;;;15.21;100.00;100230.25;8370503;28;20445;-60
2023/07/26 04:56:29;;;;;;;2.53;1.95;;;;;;;15.07;100.00;100221.97;8358408;28;20491;-60
2023/07/26 05:00:29;;;;;;;3.28;2.08;;;;;;;15.29;100.00;100229.38;8357556;28;20036;-60
2023/07/26 05:04:30;;;;;;;4.18;2.35;;;;;;;15.25;100.00;100223.41;8359024;28;20040;-60
2023/07/26 05:08:30;;;;;;;4.40;2.40;;;;;;;15.20;100.00;100228.56;8357444;28;20419;-60
2023/07/26 05:12:31;;;;;;;2.78;1.80;;;;;;;15.25;100.00;100226.13;8358925;28;20491;-60
2023/07/26 05:16:31;;;;;;;13.40;3.33;;;;;;;15.40;100.00;100229.84;8370512;28;20037;-60
2023/07/26 05:20:32;;;;;;;6.32;2.42;;;;;;;15.46;99.77;100242.75;8371999;28;20036;-61
2023/07/26 05:24:32;;;;;;;8.02;2.13;;;;;;;15.66;99.73;100235.84;8364090;28;20052;-60
2023/07/26 05:28:33;;;;;;;5.22;1.98;;;;;;;15.46;100.00;100233.72;8356011;28;20041;-60
2023/07/26 05:32:34;;;;;;;5.35;2.60;;;;;;;15.37;100.00;100240.25;8352334;28;20057;-60
2023/07/26 05:36:35;;;;;;;4.60;2.47;;;;;;;15.44;99.05;100236.63;8357419;28;20044;-60
2023/07/26 05:40:35;;;;;;;4.88;2.53;;;;;;;15.73;95.48;100229.66;8358988;28;20044;-60
2023/07/26 05:44:39;;;;;;;9.57;3.00;;;;;;;15.89;94.83;100224.09;8365665;28;20040;-66
2023/07/26 05:48:39;;;;;;;7.00;2.73;;;;;;;16.18;92.05;100235.09;8370481;28;20563;-65
2023/07/26 05:52:40;;;;;;;6.00;3.22;;;;;;;16.60;91.04;100235.44;8373641;28;20512;-66
2023/07/26 05:56:41;;;;;;;11.45;3.10;;;;;;;17.06;87.98;100231.50;8374930;28;20552;-68
2023/07/26 06:00:41;;;;;;;14.25;4.00;;;;;;;17.41;88.54;100225.22;8373641;28;20093;-66
2023/07/26 06:04:41;;;;;;;5.80;3.20;;;;;;;17.37;87.70;100232.97;8372312;28;20032;-66
2023/07/26 06:08:42;;;;;;;6.45;3.47;;;;;;;17.31;87.63;100232.88;8372810;28;20755;-67
2023/07/26 06:12:42;;;;;;;5.28;2.55;;;;;;;17.31;87.76;100241.06;8352471;28;20083;-67
2023/07/26 06:16:43;;;;;;;31.73;4.22;;;;;;;17.53;87.38;100237.38;8340724;28;20040;-67
2023/07/26 06:20:43;;;;;;;8.80;2.88;;;;;;;17.75;86.37;100244.59;8340247;28;20495;-66
2023/07/26 06:24:44;;;;;;;5.60;2.72;;;;;;;17.72;85.55;100245.00;8348053;28;20044;-66
2023/07/26 06:28:44;;;;;;;3.45;2.50;;;;;;;17.66;85.11;100248.50;8357037;28;20044;-66
2023/07/26 06:32:48;;;;;;;4.72;2.65;;;;;;;17.56;86.14;100250.69;8353451;28;20037;-68
2023/07/26 06:36:48;;;;;;;7.27;2.73;;;;;;;17.61;86.38;100245.50;8373046;28;20392;-65
2023/07/26 06:40:49;;;;;;;6.93;2.60;;;;;;;17.68;85.46;100249.13;8373525;28;20040;-67
2023/07/26 06:44:49;;;;;;;9.27;2.80;;;;;;;17.90;86.09;100250.84;8370445;28;20037;-66
2023/07/26 06:48:50;;;;;;;5.30;3.25;;;;;;;18.36;84.60;100254.91;8355362;28;20407;-65
2023/07/26 06:52:50;;;;;;;7.18;2.80;;;;;;;18.27;83.20;100249.78;8354215;28;20051;-66
2023/07/26 06:56:50;;;;;;;5.78;2.50;;;;;;;18.34;84.23;100254.28;8354522;28;20064;-65
2023/07/26 07:00:52;;;;;;;7.50;3.13;;;;;;;18.39;83.74;100254.53;8351107;28;20499;-65
2023/07/26 07:04:52;;;;;;;18.77;4.70;;;;;;;18.57;83.99;100256.81;8351997;28;20065;-66
2023/07/26 07:08:53;;;;;;;7.32;2.83;;;;;;;18.72;82.97;100249.31;8351709;28;20056;-65
2023/07/26 07:12:53;;;;;;;5.05;2.92;;;;;;;18.65;83.63;100254.78;8353210;28;20037;-65
2023/07/26 07:16:54;;;;;;;12.68;4.68;;;;;;;18.60;84.47;100257.25;8371471;28;20071;-69
2023/07/26 07:20:57;;;;;;;10.40;3.28;;;;;;;18.83;84.30;100260.59;8377632;28;20503;-66
2023/07/26 07:24:58;;;;;;;12.88;3.72;;;;;;;19.07;84.53;100273.84;8377041;28;20529;-65
2023/07/26 07:28:59;;;;;;;10.57;3.63;;;;;;;19.46;81.20;100263.09;8375692;28;20394;-65
2023/07/26 07:32:59;;;;;;;7.50;2.75;;;;;;;19.96;80.24;100272.78;8360810;28;20097;-65
2023/07/26 07:36:59;;;;;;;11.85;4.18;;;;;;;20.07;77.91;100268.59;8361188;28;20045;-65
2023/07/26 07:41:00;;;;;;;22.60;4.25;;;;;;;19.71;79.49;100273.56;8358860;28;20127;-65
2023/07/26 07:45:01;;;;;;;11.32;3.58;;;;;;;19.58;80.91;100279.00;8354825;28;20033;-61
2023/07/26 07:49:01;;;;;;;7.78;3.45;;;;;;;19.92;80.26;100276.16;8358951;28;20128;-61
2023/07/26 07:53:04;;;;;;;15.25;3.80;;;;;;;20.07;78.77;100285.06;8358921;28;20491;-61
2023/07/26 07:57:04;;;;;;;7.15;4.40;;;;;;;20.20;76.58;100277.75;8358217;28;20060;-61
2023/07/26 08:01:05;;;;;;;6.35;3.75;;;;;;;20.33;76.55;100274.16;8359040;28;20040;-61
2023/07/26 08:05:06;;;;;;;11.75;3.95;;;;;;;20.15;76.73;100277.50;8359484;28;20064;-61
2023/07/26 08:09:06;;;;;;;10.43;3.75;;;;;;;20.16;76.65;100278.38;8356318;28;20128;-61
2023/07/26 08:13:07;;;;;;;8.25;3.67;;;;;;;20.49;75.68;100284.75;8360017;28;20049;-61
2023/07/26 08:17:08;;;;;;;13.43;4.20;;;;;;;20.38;75.13;100285.38;8356938;28;20056;-61
2023/07/26 08:21:11;;;;;;;11.35;3.85;;;;;;;20.99;74.84;100284.16;8358480;28;20048;-60
2023/07/26 08:25:12;;;;;;;14.77;3.67;;;;;;;20.87;74.06;100277.56;8361356;28;20037;-60
2023/07/26 08:29:12;;;;;;;8.27;4.07;;;;;;;21.25;71.63;100281.34;8357713;28;20123;-61
2023/07/26 08:33:13;;;;;;;11.65;3.88;;;;;;;21.29;71.16;100285.38;8352610;28;20045;-61
2023/07/26 08:37:13;;;;;;;7.45;3.50;;;;;;;21.14;72.01;100290.25;8361597;28;20123;-61
2023/07/26 08:41:13;;;;;;;5.95;3.58;;;;;;;20.87;72.57;100289.41;8356884;28;20067;-60
2023/07/26 08:45:16;;;;;;;10.35;4.18;;;;;;;20.94;70.46;100300.38;8369040;28;20087;-60
2023/07/26 08:49:16;;;;;;;13.90;3.72;;;;;;;20.98;71.09;100288.78;8363518;28;20461;-60
2023/07/26 08:53:18;;;;;;;15.68;5.03;;;;;;;21.15;71.64;100291.94;8356539;28;20033;-61
2023/07/26 08:57:20;;;;;;;8.55;4.53;;;;;;;21.47;69.81;100284.69;8354875;28;20033;-60
2023/07/26 09:01:22;;;;;;;6.68;3.75;;;;;;;21.75;69.25;100276.97;8355345;28;20035;-61
2023/07/26 09:05:22;;;;;;;8.23;4.03;;;;;;;21.92;68.88;100284.50;8368653;28;20093;-61
2023/07/26 09:09:23;;;;;;;46.58;6.63;;;;;;;22.18;68.35;100278.88;8351449;28;20516;-60
2023/07/26 09:13:24;;;;;;;16.50;4.55;;;;;;;21.81;68.13;100284.34;8351623;28;20480;-61
